Terminal Aerodrome Forecast
Issued by NWS

Home | Current Version | Previous Version | Text Only | Print | Product List | Glossary On
Versions: 1 2 3 4 5 6 7 8 9 10 11 12 13 14 15 16 17 18 19 20 21 22
000
FTUS43 KDLH 220800 AAA
TAFHYR
TAF AMD
KHYR 220810Z 2208/2306 VRB06KT P6SM -RA VCTS SCT015 OVC040CB
      TEMPO 2208/2212 VRB25KT 1 1/2SM TSRA OVC018CB
     FM221200 27008KT 5SM BR VCSH SCT012 OVC025
     FM221600 29012KT P6SM BKN035
     FM222000 29014KT P6SM BKN040=

USA.gov is the U.S. government's official web portal to all federal, state and local government web resources and services.